sensor_id;sensor_type;location;lat;lon;timestamp;P1;durP1;ratioP1;P2;durP2;ratioP2
16699;SDS011;8466;52.286;21.124;2022-09-09T00:00:33;13.63;;;12.32;;
16699;SDS011;8466;52.286;21.124;2022-09-09T00:03:08;15.45;;;14.10;;
16699;SDS011;8466;52.286;21.124;2022-09-09T00:05:47;16.15;;;14.57;;
16699;SDS011;8466;52.286;21.124;2022-09-09T00:08:24;15.10;;;13.80;;
16699;SDS011;8466;52.286;21.124;2022-09-09T00:11:01;14.13;;;12.90;;
16699;SDS011;8466;52.286;21.124;2022-09-09T00:13:34;803.72;;;743.53;;
16699;SDS011;8466;52.286;21.124;2022-09-09T00:16:11;677.33;;;627.83;;
16699;SDS011;8466;52.286;21.124;2022-09-09T00:18:47;391.90;;;364.52;;
16699;SDS011;8466;52.286;21.124;2022-09-09T00:21:23;272.33;;;253.88;;
16699;SDS011;8466;52.286;21.124;2022-09-09T00:23:57;294.75;;;274.92;;
16699;SDS011;8466;52.286;21.124;2022-09-09T00:26:29;79.78;;;74.32;;
16699;SDS011;8466;52.286;21.124;2022-09-09T00:29:03;252.75;;;235.02;;
16699;SDS011;8466;52.286;21.124;2022-09-09T00:31:41;454.10;;;421.83;;
16699;SDS011;8466;52.286;21.124;2022-09-09T00:34:11;688.80;;;638.50;;
16699;SDS011;8466;52.286;21.124;2022-09-09T00:36:42;734.67;;;679.28;;
16699;SDS011;8466;52.286;21.124;2022-09-09T00:39:23;834.60;;;770.63;;
16699;SDS011;8466;52.286;21.124;2022-09-09T00:41:59;732.80;;;677.35;;
16699;SDS011;8466;52.286;21.124;2022-09-09T00:44:38;691.10;;;639.27;;
16699;SDS011;8466;52.286;21.124;2022-09-09T00:47:12;623.23;;;577.47;;
16699;SDS011;8466;52.286;21.124;2022-09-09T00:49:59;637.63;;;590.85;;
16699;SDS011;8466;52.286;21.124;2022-09-09T00:52:32;525.22;;;487.92;;
16699;SDS011;8466;52.286;21.124;2022-09-09T00:55:10;456.17;;;424.40;;
16699;SDS011;8466;52.286;21.124;2022-09-09T00:57:45;434.08;;;403.58;;
16699;SDS011;8466;52.286;21.124;2022-09-09T01:00:20;470.27;;;439.67;;
16699;SDS011;8466;52.286;21.124;2022-09-09T01:02:57;226.65;;;213.68;;
16699;SDS011;8466;52.286;21.124;2022-09-09T01:05:39;217.93;;;205.25;;
16699;SDS011;8466;52.286;21.124;2022-09-09T01:08:16;223.80;;;210.70;;
16699;SDS011;8466;52.286;21.124;2022-09-09T01:10:58;217.07;;;203.97;;
16699;SDS011;8466;52.286;21.124;2022-09-09T01:13:29;234.77;;;221.20;;
16699;SDS011;8466;52.286;21.124;2022-09-09T01:16:01;212.02;;;199.55;;
16699;SDS011;8466;52.286;21.124;2022-09-09T01:18:32;216.43;;;203.90;;
16699;SDS011;8466;52.286;21.124;2022-09-09T01:21:04;211.77;;;199.35;;
16699;SDS011;8466;52.286;21.124;2022-09-09T01:23:40;207.93;;;195.43;;
16699;SDS011;8466;52.286;21.124;2022-09-09T01:26:20;205.80;;;193.30;;
16699;SDS011;8466;52.286;21.124;2022-09-09T01:28:52;189.88;;;178.20;;
16699;SDS011;8466;52.286;21.124;2022-09-09T01:31:22;204.23;;;192.30;;
16699;SDS011;8466;52.286;21.124;2022-09-09T01:33:58;194.57;;;183.03;;
16699;SDS011;8466;52.286;21.124;2022-09-09T01:36:29;203.23;;;191.13;;
16699;SDS011;8466;52.286;21.124;2022-09-09T01:39:03;215.38;;;202.63;;
16699;SDS011;8466;52.286;21.124;2022-09-09T01:41:33;187.02;;;176.02;;
16699;SDS011;8466;52.286;21.124;2022-09-09T01:44:02;190.27;;;179.30;;
16699;SDS011;8466;52.286;21.124;2022-09-09T01:46:31;186.75;;;175.93;;
16699;SDS011;8466;52.286;21.124;2022-09-09T01:49:00;195.17;;;183.67;;
16699;SDS011;8466;52.286;21.124;2022-09-09T01:51:31;207.30;;;195.07;;
16699;SDS011;8466;52.286;21.124;2022-09-09T01:54:00;222.10;;;208.90;;
16699;SDS011;8466;52.286;21.124;2022-09-09T01:56:35;208.17;;;196.07;;
16699;SDS011;8466;52.286;21.124;2022-09-09T01:59:17;220.20;;;207.65;;
16699;SDS011;8466;52.286;21.124;2022-09-09T02:01:59;207.85;;;195.93;;
16699;SDS011;8466;52.286;21.124;2022-09-09T02:04:37;199.98;;;188.85;;
16699;SDS011;8466;52.286;21.124;2022-09-09T02:07:10;198.93;;;187.57;;
16699;SDS011;8466;52.286;21.124;2022-09-09T02:09:49;197.15;;;186.05;;
16699;SDS011;8466;52.286;21.124;2022-09-09T02:12:26;192.57;;;181.57;;
16699;SDS011;8466;52.286;21.124;2022-09-09T02:14:59;205.53;;;193.80;;
16699;SDS011;8466;52.286;21.124;2022-09-09T02:17:33;223.57;;;210.77;;
16699;SDS011;8466;52.286;21.124;2022-09-09T02:20:04;216.77;;;204.73;;
16699;SDS011;8466;52.286;21.124;2022-09-09T02:22:35;206.30;;;194.55;;
16699;SDS011;8466;52.286;21.124;2022-09-09T02:25:07;233.93;;;220.30;;
16699;SDS011;8466;52.286;21.124;2022-09-09T02:27:40;227.20;;;214.33;;
16699;SDS011;8466;52.286;21.124;2022-09-09T02:30:11;206.43;;;194.70;;
16699;SDS011;8466;52.286;21.124;2022-09-09T02:32:41;217.60;;;205.25;;
16699;SDS011;8466;52.286;21.124;2022-09-09T02:35:13;206.15;;;194.27;;
16699;SDS011;8466;52.286;21.124;2022-09-09T02:37:44;209.30;;;197.23;;
16699;SDS011;8466;52.286;21.124;2022-09-09T02:40:14;212.70;;;200.63;;
16699;SDS011;8466;52.286;21.124;2022-09-09T02:42:45;216.68;;;204.30;;
16699;SDS011;8466;52.286;21.124;2022-09-09T02:45:16;226.00;;;213.00;;
16699;SDS011;8466;52.286;21.124;2022-09-09T02:47:49;225.17;;;212.30;;
16699;SDS011;8466;52.286;21.124;2022-09-09T02:50:25;238.45;;;224.63;;
16699;SDS011;8466;52.286;21.124;2022-09-09T02:53:02;230.33;;;217.00;;
16699;SDS011;8466;52.286;21.124;2022-09-09T02:55:38;237.13;;;223.63;;
16699;SDS011;8466;52.286;21.124;2022-09-09T02:58:12;222.77;;;210.07;;
16699;SDS011;8466;52.286;21.124;2022-09-09T03:00:43;223.50;;;210.50;;
16699;SDS011;8466;52.286;21.124;2022-09-09T03:03:14;224.00;;;210.93;;
16699;SDS011;8466;52.286;21.124;2022-09-09T03:05:43;235.98;;;222.82;;
16699;SDS011;8466;52.286;21.124;2022-09-09T03:08:13;257.80;;;243.05;;
16699;SDS011;8466;52.286;21.124;2022-09-09T03:10:41;234.52;;;220.98;;
16699;SDS011;8466;52.286;21.124;2022-09-09T03:13:11;255.93;;;240.95;;
16699;SDS011;8466;52.286;21.124;2022-09-09T03:15:41;264.55;;;249.02;;
16699;SDS011;8466;52.286;21.124;2022-09-09T03:18:10;263.65;;;248.30;;
16699;SDS011;8466;52.286;21.124;2022-09-09T03:20:39;261.25;;;246.23;;
16699;SDS011;8466;52.286;21.124;2022-09-09T03:23:09;250.75;;;236.82;;
16699;SDS011;8466;52.286;21.124;2022-09-09T03:25:46;248.23;;;234.10;;
16699;SDS011;8466;52.286;21.124;2022-09-09T03:28:17;268.25;;;252.95;;
16699;SDS011;8466;52.286;21.124;2022-09-09T03:30:45;254.03;;;239.10;;
16699;SDS011;8466;52.286;21.124;2022-09-09T03:33:15;275.55;;;259.55;;
16699;SDS011;8466;52.286;21.124;2022-09-09T03:35:45;277.00;;;261.13;;
16699;SDS011;8466;52.286;21.124;2022-09-09T03:38:15;278.17;;;262.23;;
16699;SDS011;8466;52.286;21.124;2022-09-09T03:40:48;262.63;;;247.75;;
16699;SDS011;8466;52.286;21.124;2022-09-09T03:43:21;234.70;;;221.10;;
16699;SDS011;8466;52.286;21.124;2022-09-09T03:45:50;243.90;;;230.43;;
16699;SDS011;8466;52.286;21.124;2022-09-09T03:48:19;225.10;;;212.02;;
16699;SDS011;8466;52.286;21.124;2022-09-09T03:50:48;307.30;;;289.27;;
16699;SDS011;8466;52.286;21.124;2022-09-09T03:53:19;267.20;;;251.63;;
16699;SDS011;8466;52.286;21.124;2022-09-09T03:55:50;308.23;;;290.05;;
16699;SDS011;8466;52.286;21.124;2022-09-09T03:58:22;288.15;;;271.40;;
16699;SDS011;8466;52.286;21.124;2022-09-09T04:00:53;295.73;;;277.90;;
16699;SDS011;8466;52.286;21.124;2022-09-09T04:03:23;295.88;;;278.88;;
16699;SDS011;8466;52.286;21.124;2022-09-09T04:05:54;270.15;;;254.63;;
16699;SDS011;8466;52.286;21.124;2022-09-09T04:08:24;285.02;;;267.48;;
16699;SDS011;8466;52.286;21.124;2022-09-09T04:10:54;309.75;;;290.27;;
16699;SDS011;8466;52.286;21.124;2022-09-09T04:13:25;281.98;;;264.48;;
16699;SDS011;8466;52.286;21.124;2022-09-09T04:15:55;278.95;;;262.50;;
16699;SDS011;8466;52.286;21.124;2022-09-09T04:18:25;274.35;;;257.23;;
16699;SDS011;8466;52.286;21.124;2022-09-09T04:20:56;308.70;;;290.13;;
16699;SDS011;8466;52.286;21.124;2022-09-09T04:23:25;291.33;;;273.38;;
16699;SDS011;8466;52.286;21.124;2022-09-09T04:25:56;315.58;;;296.38;;
16699;SDS011;8466;52.286;21.124;2022-09-09T04:28:28;287.83;;;270.67;;
16699;SDS011;8466;52.286;21.124;2022-09-09T04:31:03;292.67;;;274.80;;
16699;SDS011;8466;52.286;21.124;2022-09-09T04:33:33;285.70;;;268.80;;
16699;SDS011;8466;52.286;21.124;2022-09-09T04:36:05;311.55;;;292.40;;
16699;SDS011;8466;52.286;21.124;2022-09-09T04:38:35;291.40;;;273.88;;
16699;SDS011;8466;52.286;21.124;2022-09-09T04:41:04;307.48;;;288.83;;
16699;SDS011;8466;52.286;21.124;2022-09-09T04:43:35;305.58;;;287.75;;
16699;SDS011;8466;52.286;21.124;2022-09-09T04:46:04;318.05;;;298.48;;
16699;SDS011;8466;52.286;21.124;2022-09-09T04:48:33;74.82;;;70.55;;
16699;SDS011;8466;52.286;21.124;2022-09-09T04:51:03;302.92;;;284.27;;
16699;SDS011;8466;52.286;21.124;2022-09-09T04:53:34;278.77;;;261.50;;
16699;SDS011;8466;52.286;21.124;2022-09-09T04:56:05;304.58;;;285.77;;
16699;SDS011;8466;52.286;21.124;2022-09-09T04:58:38;327.23;;;306.95;;
16699;SDS011;8466;52.286;21.124;2022-09-09T05:01:10;296.60;;;278.13;;
16699;SDS011;8466;52.286;21.124;2022-09-09T05:03:40;55.17;;;51.90;;
16699;SDS011;8466;52.286;21.124;2022-09-09T05:06:09;337.80;;;316.00;;
16699;SDS011;8466;52.286;21.124;2022-09-09T05:08:39;296.92;;;277.48;;
16699;SDS011;8466;52.286;21.124;2022-09-09T05:11:13;321.60;;;300.65;;
16699;SDS011;8466;52.286;21.124;2022-09-09T05:13:45;350.85;;;328.17;;
16699;SDS011;8466;52.286;21.124;2022-09-09T05:27:46;22.27;;;20.33;;
16699;SDS011;8466;52.286;21.124;2022-09-09T05:30:16;25.58;;;23.55;;
16699;SDS011;8466;52.286;21.124;2022-09-09T05:32:45;22.40;;;20.35;;
16699;SDS011;8466;52.286;21.124;2022-09-09T05:35:15;20.80;;;19.05;;
16699;SDS011;8466;52.286;21.124;2022-09-09T05:37:45;19.30;;;17.60;;
16699;SDS011;8466;52.286;21.124;2022-09-09T05:40:14;19.48;;;17.70;;
16699;SDS011;8466;52.286;21.124;2022-09-09T05:42:43;17.08;;;15.40;;
16699;SDS011;8466;52.286;21.124;2022-09-09T05:45:12;16.38;;;14.80;;
16699;SDS011;8466;52.286;21.124;2022-09-09T05:47:42;16.08;;;14.38;;
16699;SDS011;8466;52.286;21.124;2022-09-09T05:50:11;16.85;;;15.18;;
16699;SDS011;8466;52.286;21.124;2022-09-09T05:52:40;17.15;;;15.43;;
16699;SDS011;8466;52.286;21.124;2022-09-09T05:55:11;16.75;;;15.10;;
16699;SDS011;8466;52.286;21.124;2022-09-09T05:57:39;15.73;;;13.98;;
16699;SDS011;8466;52.286;21.124;2022-09-09T06:00:09;15.23;;;13.68;;
16699;SDS011;8466;52.286;21.124;2022-09-09T06:02:43;13.80;;;12.73;;
16699;SDS011;8466;52.286;21.124;2022-09-09T06:05:18;14.05;;;12.30;;
16699;SDS011;8466;52.286;21.124;2022-09-09T06:07:46;14.70;;;13.15;;
16699;SDS011;8466;52.286;21.124;2022-09-09T06:10:15;13.60;;;12.65;;
16699;SDS011;8466;52.286;21.124;2022-09-09T06:12:44;16.50;;;14.82;;
16699;SDS011;8466;52.286;21.124;2022-09-09T06:15:13;14.85;;;12.25;;
16699;SDS011;8466;52.286;21.124;2022-09-09T06:17:43;13.75;;;12.25;;
16699;SDS011;8466;52.286;21.124;2022-09-09T06:20:11;14.63;;;13.38;;
16699;SDS011;8466;52.286;21.124;2022-09-09T06:22:40;14.73;;;13.25;;
16699;SDS011;8466;52.286;21.124;2022-09-09T06:25:09;13.25;;;11.75;;
16699;SDS011;8466;52.286;21.124;2022-09-09T06:27:39;14.48;;;12.85;;
16699;SDS011;8466;52.286;21.124;2022-09-09T06:30:08;14.73;;;12.50;;
16699;SDS011;8466;52.286;21.124;2022-09-09T06:32:38;15.60;;;14.60;;
16699;SDS011;8466;52.286;21.124;2022-09-09T06:35:08;15.50;;;14.05;;
16699;SDS011;8466;52.286;21.124;2022-09-09T06:37:37;12.65;;;11.75;;
16699;SDS011;8466;52.286;21.124;2022-09-09T06:40:06;18.27;;;16.42;;
16699;SDS011;8466;52.286;21.124;2022-09-09T06:42:35;15.95;;;14.80;;
16699;SDS011;8466;52.286;21.124;2022-09-09T06:45:05;15.63;;;13.88;;
16699;SDS011;8466;52.286;21.124;2022-09-09T06:47:34;15.07;;;14.07;;
16699;SDS011;8466;52.286;21.124;2022-09-09T06:50:03;18.20;;;16.98;;
16699;SDS011;8466;52.286;21.124;2022-09-09T06:52:36;18.42;;;16.65;;
16699;SDS011;8466;52.286;21.124;2022-09-09T06:55:05;15.85;;;14.30;;
16699;SDS011;8466;52.286;21.124;2022-09-09T06:57:34;20.48;;;18.48;;
16699;SDS011;8466;52.286;21.124;2022-09-09T07:00:04;18.55;;;16.85;;
16699;SDS011;8466;52.286;21.124;2022-09-09T07:02:33;21.58;;;19.40;;
16699;SDS011;8466;52.286;21.124;2022-09-09T07:05:06;20.23;;;18.23;;
16699;SDS011;8466;52.286;21.124;2022-09-09T07:07:39;20.55;;;18.77;;
16699;SDS011;8466;52.286;21.124;2022-09-09T07:10:08;19.83;;;18.55;;
16699;SDS011;8466;52.286;21.124;2022-09-09T07:12:37;18.83;;;16.95;;
16699;SDS011;8466;52.286;21.124;2022-09-09T07:15:06;15.88;;;14.20;;
16699;SDS011;8466;52.286;21.124;2022-09-09T07:17:35;14.25;;;11.75;;
16699;SDS011;8466;52.286;21.124;2022-09-09T07:20:04;15.20;;;13.27;;
16699;SDS011;8466;52.286;21.124;2022-09-09T07:22:33;15.80;;;14.05;;
16699;SDS011;8466;52.286;21.124;2022-09-09T07:25:03;15.32;;;13.57;;
16699;SDS011;8466;52.286;21.124;2022-09-09T07:27:35;16.73;;;14.30;;
16699;SDS011;8466;52.286;21.124;2022-09-09T07:30:05;16.05;;;12.00;;
16699;SDS011;8466;52.286;21.124;2022-09-09T07:32:34;16.00;;;12.32;;
16699;SDS011;8466;52.286;21.124;2022-09-09T07:35:03;14.38;;;12.35;;
16699;SDS011;8466;52.286;21.124;2022-09-09T07:37:35;14.27;;;11.70;;
16699;SDS011;8466;52.286;21.124;2022-09-09T07:40:07;10.98;;;10.07;;
16699;SDS011;8466;52.286;21.124;2022-09-09T07:42:36;17.85;;;13.80;;
16699;SDS011;8466;52.286;21.124;2022-09-09T07:45:06;15.98;;;13.18;;
16699;SDS011;8466;52.286;21.124;2022-09-09T07:47:35;15.35;;;13.07;;
16699;SDS011;8466;52.286;21.124;2022-09-09T07:50:04;15.90;;;11.93;;
16699;SDS011;8466;52.286;21.124;2022-09-09T07:52:35;15.27;;;12.45;;
16699;SDS011;8466;52.286;21.124;2022-09-09T07:55:04;16.05;;;12.13;;
16699;SDS011;8466;52.286;21.124;2022-09-09T07:57:35;16.00;;;13.00;;
16699;SDS011;8466;52.286;21.124;2022-09-09T08:00:04;16.77;;;11.90;;
16699;SDS011;8466;52.286;21.124;2022-09-09T08:02:34;16.25;;;12.10;;
16699;SDS011;8466;52.286;21.124;2022-09-09T08:05:02;18.00;;;12.43;;
16699;SDS011;8466;52.286;21.124;2022-09-09T08:07:33;17.25;;;12.82;;
16699;SDS011;8466;52.286;21.124;2022-09-09T08:10:06;14.52;;;12.10;;
16699;SDS011;8466;52.286;21.124;2022-09-09T08:12:39;16.98;;;12.38;;
16699;SDS011;8466;52.286;21.124;2022-09-09T08:15:28;18.77;;;12.57;;
16699;SDS011;8466;52.286;21.124;2022-09-09T08:17:57;17.95;;;14.07;;
16699;SDS011;8466;52.286;21.124;2022-09-09T08:20:26;15.68;;;13.00;;
16699;SDS011;8466;52.286;21.124;2022-09-09T08:22:55;19.08;;;14.30;;
16699;SDS011;8466;52.286;21.124;2022-09-09T08:25:24;15.88;;;13.55;;
16699;SDS011;8466;52.286;21.124;2022-09-09T08:27:54;17.23;;;14.55;;
16699;SDS011;8466;52.286;21.124;2022-09-09T08:30:23;15.57;;;13.40;;
16699;SDS011;8466;52.286;21.124;2022-09-09T08:32:51;16.48;;;13.90;;
16699;SDS011;8466;52.286;21.124;2022-09-09T08:35:21;16.45;;;14.38;;
16699;SDS011;8466;52.286;21.124;2022-09-09T08:37:53;17.17;;;13.93;;
16699;SDS011;8466;52.286;21.124;2022-09-09T08:40:22;18.55;;;15.68;;
16699;SDS011;8466;52.286;21.124;2022-09-09T08:43:00;18.83;;;14.23;;
16699;SDS011;8466;52.286;21.124;2022-09-09T08:45:32;17.42;;;14.55;;
16699;SDS011;8466;52.286;21.124;2022-09-09T08:48:08;17.65;;;14.35;;
16699;SDS011;8466;52.286;21.124;2022-09-09T08:50:47;18.35;;;16.25;;
16699;SDS011;8466;52.286;21.124;2022-09-09T08:53:19;18.08;;;15.38;;
16699;SDS011;8466;52.286;21.124;2022-09-09T08:55:51;20.75;;;18.60;;
16699;SDS011;8466;52.286;21.124;2022-09-09T08:58:23;19.95;;;18.02;;
16699;SDS011;8466;52.286;21.124;2022-09-09T09:03:50;21.17;;;19.17;;
16699;SDS011;8466;52.286;21.124;2022-09-09T09:06:30;21.35;;;19.30;;
16699;SDS011;8466;52.286;21.124;2022-09-09T09:09:08;21.83;;;18.50;;
16699;SDS011;8466;52.286;21.124;2022-09-09T09:11:46;19.55;;;17.58;;
16699;SDS011;8466;52.286;21.124;2022-09-09T09:14:19;20.95;;;18.70;;
16699;SDS011;8466;52.286;21.124;2022-09-09T09:16:51;22.55;;;20.42;;
16699;SDS011;8466;52.286;21.124;2022-09-09T09:19:26;24.27;;;21.85;;
16699;SDS011;8466;52.286;21.124;2022-09-09T09:21:58;21.55;;;19.40;;
16699;SDS011;8466;52.286;21.124;2022-09-09T09:24:35;22.55;;;20.42;;
16699;SDS011;8466;52.286;21.124;2022-09-09T09:27:11;23.83;;;21.63;;
16699;SDS011;8466;52.286;21.124;2022-09-09T09:29:42;24.35;;;22.15;;
16699;SDS011;8466;52.286;21.124;2022-09-09T09:32:35;25.58;;;23.23;;
16699;SDS011;8466;52.286;21.124;2022-09-09T09:35:10;25.23;;;22.77;;
16699;SDS011;8466;52.286;21.124;2022-09-09T09:37:40;24.90;;;22.52;;
16699;SDS011;8466;52.286;21.124;2022-09-09T09:40:30;24.80;;;21.90;;
16699;SDS011;8466;52.286;21.124;2022-09-09T09:43:00;26.75;;;24.33;;
16699;SDS011;8466;52.286;21.124;2022-09-09T09:45:41;25.27;;;22.73;;
16699;SDS011;8466;52.286;21.124;2022-09-09T09:48:26;24.20;;;21.70;;
16699;SDS011;8466;52.286;21.124;2022-09-09T09:50:56;26.50;;;23.75;;
16699;SDS011;8466;52.286;21.124;2022-09-09T09:53:27;29.17;;;26.50;;
16699;SDS011;8466;52.286;21.124;2022-09-09T09:55:58;24.00;;;21.55;;
16699;SDS011;8466;52.286;21.124;2022-09-09T09:58:30;25.45;;;23.05;;
16699;SDS011;8466;52.286;21.124;2022-09-09T10:01:03;26.60;;;24.05;;
16699;SDS011;8466;52.286;21.124;2022-09-09T10:03:35;27.13;;;24.40;;
16699;SDS011;8466;52.286;21.124;2022-09-09T10:06:06;28.42;;;25.63;;
16699;SDS011;8466;52.286;21.124;2022-09-09T10:08:43;27.85;;;25.23;;
16699;SDS011;8466;52.286;21.124;2022-09-09T10:11:18;28.02;;;25.35;;
16699;SDS011;8466;52.286;21.124;2022-09-09T10:13:58;29.52;;;26.58;;
16699;SDS011;8466;52.286;21.124;2022-09-09T10:16:44;40.35;;;36.95;;
16699;SDS011;8466;52.286;21.124;2022-09-09T10:19:20;40.25;;;36.90;;
16699;SDS011;8466;52.286;21.124;2022-09-09T10:22:02;33.78;;;30.73;;
16699;SDS011;8466;52.286;21.124;2022-09-09T10:24:46;31.45;;;28.60;;
16699;SDS011;8466;52.286;21.124;2022-09-09T10:27:36;31.50;;;28.60;;
16699;SDS011;8466;52.286;21.124;2022-09-09T10:30:14;44.55;;;40.92;;
16699;SDS011;8466;52.286;21.124;2022-09-09T10:32:49;46.72;;;43.08;;
16699;SDS011;8466;52.286;21.124;2022-09-09T10:35:25;38.42;;;35.00;;
16699;SDS011;8466;52.286;21.124;2022-09-09T10:38:05;44.58;;;40.83;;
16699;SDS011;8466;52.286;21.124;2022-09-09T10:40:50;39.95;;;36.42;;
16699;SDS011;8466;52.286;21.124;2022-09-09T10:43:55;48.55;;;44.63;;
16699;SDS011;8466;52.286;21.124;2022-09-09T10:46:37;49.38;;;45.55;;
16699;SDS011;8466;52.286;21.124;2022-09-09T10:49:33;39.47;;;36.05;;
16699;SDS011;8466;52.286;21.124;2022-09-09T10:52:19;43.78;;;40.08;;
16699;SDS011;8466;52.286;21.124;2022-09-09T10:54:55;51.80;;;47.78;;
16699;SDS011;8466;52.286;21.124;2022-09-09T10:57:31;46.53;;;42.53;;
16699;SDS011;8466;52.286;21.124;2022-09-09T11:00:13;45.25;;;41.67;;
16699;SDS011;8466;52.286;21.124;2022-09-09T11:02:52;37.10;;;33.90;;
16699;SDS011;8466;52.286;21.124;2022-09-09T11:05:31;41.28;;;37.83;;
16699;SDS011;8466;52.286;21.124;2022-09-09T11:08:13;37.97;;;34.63;;
16699;SDS011;8466;52.286;21.124;2022-09-09T11:10:50;40.38;;;36.88;;
16699;SDS011;8466;52.286;21.124;2022-09-09T11:13:32;43.42;;;39.72;;
16699;SDS011;8466;52.286;21.124;2022-09-09T11:16:11;47.00;;;42.95;;
16699;SDS011;8466;52.286;21.124;2022-09-09T11:18:52;36.83;;;33.47;;
16699;SDS011;8466;52.286;21.124;2022-09-09T11:21:32;47.13;;;43.17;;
16699;SDS011;8466;52.286;21.124;2022-09-09T11:24:10;44.90;;;41.03;;
16699;SDS011;8466;52.286;21.124;2022-09-09T11:26:49;40.88;;;37.40;;
16699;SDS011;8466;52.286;21.124;2022-09-09T11:29:36;36.78;;;33.30;;
16699;SDS011;8466;52.286;21.124;2022-09-09T11:33:11;34.03;;;30.73;;
16699;SDS011;8466;52.286;21.124;2022-09-09T11:36:21;32.30;;;28.80;;
16699;SDS011;8466;52.286;21.124;2022-09-09T11:39:23;29.55;;;26.52;;
16699;SDS011;8466;52.286;21.124;2022-09-09T11:44:46;30.58;;;27.60;;
16699;SDS011;8466;52.286;21.124;2022-09-09T11:47:22;29.83;;;26.42;;
16699;SDS011;8466;52.286;21.124;2022-09-09T11:50:06;33.67;;;30.33;;
16699;SDS011;8466;52.286;21.124;2022-09-09T11:53:03;35.90;;;32.30;;
16699;SDS011;8466;52.286;21.124;2022-09-09T11:56:02;33.35;;;30.05;;
16699;SDS011;8466;52.286;21.124;2022-09-09T11:58:43;31.60;;;28.25;;
16699;SDS011;8466;52.286;21.124;2022-09-09T12:01:35;34.00;;;30.15;;
16699;SDS011;8466;52.286;21.124;2022-09-09T12:04:09;32.83;;;29.60;;
16699;SDS011;8466;52.286;21.124;2022-09-09T12:06:56;29.30;;;26.15;;
16699;SDS011;8466;52.286;21.124;2022-09-09T12:09:29;35.95;;;32.53;;
16699;SDS011;8466;52.286;21.124;2022-09-09T12:12:24;52.83;;;48.53;;
16699;SDS011;8466;52.286;21.124;2022-09-09T12:14:57;47.15;;;43.13;;
16699;SDS011;8466;52.286;21.124;2022-09-09T12:17:31;50.80;;;46.50;;
16699;SDS011;8466;52.286;21.124;2022-09-09T12:20:11;52.33;;;47.70;;
16699;SDS011;8466;52.286;21.124;2022-09-09T12:22:45;45.35;;;41.15;;
16699;SDS011;8466;52.286;21.124;2022-09-09T12:25:53;48.95;;;44.65;;
16699;SDS011;8466;52.286;21.124;2022-09-09T12:28:47;42.20;;;38.28;;
16699;SDS011;8466;52.286;21.124;2022-09-09T12:31:24;40.28;;;36.47;;
16699;SDS011;8466;52.286;21.124;2022-09-09T12:34:04;38.15;;;34.45;;
16699;SDS011;8466;52.286;21.124;2022-09-09T12:36:44;37.03;;;33.35;;
16699;SDS011;8466;52.286;21.124;2022-09-09T12:39:20;37.10;;;32.80;;
16699;SDS011;8466;52.286;21.124;2022-09-09T12:41:57;33.63;;;30.33;;
16699;SDS011;8466;52.286;21.124;2022-09-09T12:44:27;35.10;;;31.30;;
16699;SDS011;8466;52.286;21.124;2022-09-09T12:46:56;32.15;;;28.80;;
16699;SDS011;8466;52.286;21.124;2022-09-09T12:49:29;26.73;;;24.13;;
16699;SDS011;8466;52.286;21.124;2022-09-09T12:52:03;37.00;;;33.47;;
16699;SDS011;8466;52.286;21.124;2022-09-09T12:54:36;39.28;;;35.28;;
16699;SDS011;8466;52.286;21.124;2022-09-09T12:57:09;40.80;;;37.10;;
16699;SDS011;8466;52.286;21.124;2022-09-09T12:59:41;39.92;;;36.10;;
16699;SDS011;8466;52.286;21.124;2022-09-09T13:02:19;40.35;;;36.30;;
16699;SDS011;8466;52.286;21.124;2022-09-09T13:04:50;33.58;;;30.25;;
16699;SDS011;8466;52.286;21.124;2022-09-09T13:07:20;35.83;;;32.30;;
16699;SDS011;8466;52.286;21.124;2022-09-09T13:09:51;30.88;;;28.48;;
16699;SDS011;8466;52.286;21.124;2022-09-09T13:12:21;37.72;;;33.78;;
16699;SDS011;8466;52.286;21.124;2022-09-09T13:14:53;37.55;;;34.00;;
16699;SDS011;8466;52.286;21.124;2022-09-09T13:17:24;43.42;;;39.40;;
16699;SDS011;8466;52.286;21.124;2022-09-09T13:19:55;41.53;;;37.42;;
16699;SDS011;8466;52.286;21.124;2022-09-09T13:22:29;41.53;;;37.78;;
16699;SDS011;8466;52.286;21.124;2022-09-09T13:25:04;38.83;;;34.88;;
16699;SDS011;8466;52.286;21.124;2022-09-09T13:27:35;33.08;;;28.75;;
16699;SDS011;8466;52.286;21.124;2022-09-09T13:30:23;35.55;;;32.03;;
16699;SDS011;8466;52.286;21.124;2022-09-09T13:33:00;34.38;;;30.83;;
16699;SDS011;8466;52.286;21.124;2022-09-09T13:35:31;23.40;;;21.10;;
16699;SDS011;8466;52.286;21.124;2022-09-09T13:38:06;32.35;;;28.75;;
16699;SDS011;8466;52.286;21.124;2022-09-09T13:40:37;36.10;;;32.47;;
16699;SDS011;8466;52.286;21.124;2022-09-09T13:43:10;38.03;;;34.33;;
16699;SDS011;8466;52.286;21.124;2022-09-09T13:45:53;39.45;;;35.67;;
16699;SDS011;8466;52.286;21.124;2022-09-09T13:48:24;39.30;;;35.50;;
16699;SDS011;8466;52.286;21.124;2022-09-09T13:50:54;38.92;;;35.25;;
16699;SDS011;8466;52.286;21.124;2022-09-09T13:53:24;35.95;;;32.35;;
16699;SDS011;8466;52.286;21.124;2022-09-09T13:55:53;35.13;;;31.65;;
16699;SDS011;8466;52.286;21.124;2022-09-09T13:58:23;39.08;;;35.30;;
16699;SDS011;8466;52.286;21.124;2022-09-09T14:00:54;36.50;;;32.97;;
16699;SDS011;8466;52.286;21.124;2022-09-09T14:03:23;38.72;;;34.88;;
16699;SDS011;8466;52.286;21.124;2022-09-09T14:05:52;37.47;;;33.67;;
16699;SDS011;8466;52.286;21.124;2022-09-09T14:08:22;38.13;;;34.13;;
16699;SDS011;8466;52.286;21.124;2022-09-09T14:10:54;38.72;;;34.80;;
16699;SDS011;8466;52.286;21.124;2022-09-09T14:13:26;35.17;;;31.52;;
16699;SDS011;8466;52.286;21.124;2022-09-09T14:15:56;40.00;;;34.83;;
16699;SDS011;8466;52.286;21.124;2022-09-09T14:18:24;36.38;;;32.85;;
16699;SDS011;8466;52.286;21.124;2022-09-09T14:20:53;42.95;;;39.03;;
16699;SDS011;8466;52.286;21.124;2022-09-09T14:23:24;36.92;;;33.33;;
16699;SDS011;8466;52.286;21.124;2022-09-09T14:25:52;39.40;;;35.53;;
16699;SDS011;8466;52.286;21.124;2022-09-09T14:28:21;37.05;;;33.42;;
16699;SDS011;8466;52.286;21.124;2022-09-09T14:31:12;36.42;;;30.48;;
16699;SDS011;8466;52.286;21.124;2022-09-09T14:33:41;32.45;;;27.63;;
16699;SDS011;8466;52.286;21.124;2022-09-09T14:36:10;35.00;;;31.25;;
16699;SDS011;8466;52.286;21.124;2022-09-09T14:38:39;37.92;;;33.67;;
16699;SDS011;8466;52.286;21.124;2022-09-09T14:41:09;27.13;;;24.80;;
16699;SDS011;8466;52.286;21.124;2022-09-09T14:43:39;72.07;;;66.75;;
16699;SDS011;8466;52.286;21.124;2022-09-09T14:46:08;55.70;;;51.42;;
16699;SDS011;8466;52.286;21.124;2022-09-09T14:48:39;30.52;;;27.13;;
16699;SDS011;8466;52.286;21.124;2022-09-09T14:51:10;40.45;;;36.35;;
16699;SDS011;8466;52.286;21.124;2022-09-09T14:53:41;40.92;;;36.75;;
16699;SDS011;8466;52.286;21.124;2022-09-09T14:56:11;38.05;;;34.13;;
16699;SDS011;8466;52.286;21.124;2022-09-09T14:58:41;38.78;;;35.17;;
16699;SDS011;8466;52.286;21.124;2022-09-09T15:01:12;41.47;;;37.70;;
16699;SDS011;8466;52.286;21.124;2022-09-09T15:03:48;37.53;;;33.78;;
16699;SDS011;8466;52.286;21.124;2022-09-09T15:06:19;44.85;;;40.95;;
16699;SDS011;8466;52.286;21.124;2022-09-09T15:08:49;60.28;;;55.92;;